sensor_id;sensor_type;location;lat;lon;timestamp;temperature;humidity
1175;DHT22;576;48.418;10.074;2023-03-22T00:00:10;23.90;57.20
1175;DHT22;576;48.418;10.074;2023-03-22T00:02:43;23.90;57.20
1175;DHT22;576;48.418;10.074;2023-03-22T00:05:11;23.90;57.20
1175;DHT22;576;48.418;10.074;2023-03-22T00:07:39;23.90;57.20
1175;DHT22;576;48.418;10.074;2023-03-22T00:10:09;23.90;57.20
1175;DHT22;576;48.418;10.074;2023-03-22T00:12:37;23.80;57.20
1175;DHT22;576;48.418;10.074;2023-03-22T00:15:08;23.80;57.20
1175;DHT22;576;48.418;10.074;2023-03-22T00:17:37;23.90;57.20
1175;DHT22;576;48.418;10.074;2023-03-22T00:20:06;23.80;57.20
1175;DHT22;576;48.418;10.074;2023-03-22T00:22:34;23.80;57.10
1175;DHT22;576;48.418;10.074;2023-03-22T00:25:04;23.80;57.10
1175;DHT22;576;48.418;10.074;2023-03-22T00:27:32;23.80;57.10
1175;DHT22;576;48.418;10.074;2023-03-22T00:30:00;23.80;57.10
1175;DHT22;576;48.418;10.074;2023-03-22T00:32:33;23.80;57.10
1175;DHT22;576;48.418;10.074;2023-03-22T00:35:01;23.80;57.10
1175;DHT22;576;48.418;10.074;2023-03-22T00:37:30;23.80;57.10
1175;DHT22;576;48.418;10.074;2023-03-22T00:40:05;23.80;57.10
1175;DHT22;576;48.418;10.074;2023-03-22T00:42:34;23.80;57.00
1175;DHT22;576;48.418;10.074;2023-03-22T00:45:04;23.80;57.10
1175;DHT22;576;48.418;10.074;2023-03-22T00:47:34;23.80;57.00
1175;DHT22;576;48.418;10.074;2023-03-22T00:50:03;23.80;57.00
1175;DHT22;576;48.418;10.074;2023-03-22T00:52:32;23.80;57.00
1175;DHT22;576;48.418;10.074;2023-03-22T00:55:00;23.80;57.00
1175;DHT22;576;48.418;10.074;2023-03-22T00:57:28;23.80;57.00
1175;DHT22;576;48.418;10.074;2023-03-22T00:59:56;23.80;57.00
1175;DHT22;576;48.418;10.074;2023-03-22T01:02:25;23.80;57.00
1175;DHT22;576;48.418;10.074;2023-03-22T01:04:56;23.80;57.10
1175;DHT22;576;48.418;10.074;2023-03-22T01:07:25;23.70;57.00
1175;DHT22;576;48.418;10.074;2023-03-22T01:09:53;23.80;57.00
1175;DHT22;576;48.418;10.074;2023-03-22T01:12:21;23.70;57.00
1175;DHT22;576;48.418;10.074;2023-03-22T01:14:49;23.80;57.00
1175;DHT22;576;48.418;10.074;2023-03-22T01:17:17;23.80;57.00
1175;DHT22;576;48.418;10.074;2023-03-22T01:19:46;23.70;57.00
1175;DHT22;576;48.418;10.074;2023-03-22T01:22:15;23.70;57.00
1175;DHT22;576;48.418;10.074;2023-03-22T01:24:44;23.70;57.00
1175;DHT22;576;48.418;10.074;2023-03-22T01:27:12;23.70;57.00
1175;DHT22;576;48.418;10.074;2023-03-22T01:29:40;23.70;57.00
1175;DHT22;576;48.418;10.074;2023-03-22T01:32:08;23.70;57.00
1175;DHT22;576;48.418;10.074;2023-03-22T01:34:36;23.70;57.00
1175;DHT22;576;48.418;10.074;2023-03-22T01:37:04;23.70;57.00
1175;DHT22;576;48.418;10.074;2023-03-22T01:39:35;23.70;57.00
1175;DHT22;576;48.418;10.074;2023-03-22T01:42:11;23.70;57.00
1175;DHT22;576;48.418;10.074;2023-03-22T01:44:41;23.70;57.00
1175;DHT22;576;48.418;10.074;2023-03-22T01:47:10;23.70;57.00
1175;DHT22;576;48.418;10.074;2023-03-22T01:49:39;23.70;56.90
1175;DHT22;576;48.418;10.074;2023-03-22T01:52:10;23.70;56.90
1175;DHT22;576;48.418;10.074;2023-03-22T01:54:51;23.70;56.90
1175;DHT22;576;48.418;10.074;2023-03-22T01:57:33;23.70;56.90
1175;DHT22;576;48.418;10.074;2023-03-22T02:00:07;23.70;56.90
1175;DHT22;576;48.418;10.074;2023-03-22T02:02:42;23.70;56.90
1175;DHT22;576;48.418;10.074;2023-03-22T02:05:20;23.70;56.90
1175;DHT22;576;48.418;10.074;2023-03-22T02:07:49;23.70;56.90
1175;DHT22;576;48.418;10.074;2023-03-22T02:10:24;23.70;56.90
1175;DHT22;576;48.418;10.074;2023-03-22T02:13:33;23.70;56.90
1175;DHT22;576;48.418;10.074;2023-03-22T02:22:48;23.60;56.90
1175;DHT22;576;48.418;10.074;2023-03-22T02:25:44;23.70;56.90
1175;DHT22;576;48.418;10.074;2023-03-22T02:28:25;23.60;56.90
1175;DHT22;576;48.418;10.074;2023-03-22T02:31:22;23.60;56.90
1175;DHT22;576;48.418;10.074;2023-03-22T02:34:19;23.60;56.90
1175;DHT22;576;48.418;10.074;2023-03-22T02:37:28;23.60;56.90
1175;DHT22;576;48.418;10.074;2023-03-22T02:40:06;23.60;56.90
1175;DHT22;576;48.418;10.074;2023-03-22T02:42:43;23.60;56.90
1175;DHT22;576;48.418;10.074;2023-03-22T02:45:21;23.60;56.90
1175;DHT22;576;48.418;10.074;2023-03-22T02:47:57;23.60;56.90
1175;DHT22;576;48.418;10.074;2023-03-22T02:50:33;23.60;56.90
1175;DHT22;576;48.418;10.074;2023-03-22T02:53:06;23.60;56.90
1175;DHT22;576;48.418;10.074;2023-03-22T02:55:40;23.60;56.90
1175;DHT22;576;48.418;10.074;2023-03-22T02:58:14;23.60;56.90
1175;DHT22;576;48.418;10.074;2023-03-22T03:00:45;23.60;56.90
1175;DHT22;576;48.418;10.074;2023-03-22T03:03:16;23.50;56.90
1175;DHT22;576;48.418;10.074;2023-03-22T03:05:48;23.50;56.90
1175;DHT22;576;48.418;10.074;2023-03-22T03:08:19;23.50;56.90
1175;DHT22;576;48.418;10.074;2023-03-22T03:10:52;23.50;56.90
1175;DHT22;576;48.418;10.074;2023-03-22T03:13:20;23.50;56.90
1175;DHT22;576;48.418;10.074;2023-03-22T03:15:51;23.50;56.90
1175;DHT22;576;48.418;10.074;2023-03-22T03:21:24;23.50;56.90
1175;DHT22;576;48.418;10.074;2023-03-22T03:24:02;23.50;56.90
1175;DHT22;576;48.418;10.074;2023-03-22T03:26:39;23.50;56.90
1175;DHT22;576;48.418;10.074;2023-03-22T03:29:14;23.50;56.80
1175;DHT22;576;48.418;10.074;2023-03-22T03:31:51;23.50;56.90
1175;DHT22;576;48.418;10.074;2023-03-22T03:34:25;23.50;56.90
1175;DHT22;576;48.418;10.074;2023-03-22T03:36:58;23.50;56.80
1175;DHT22;576;48.418;10.074;2023-03-22T03:39:30;23.50;56.90
1175;DHT22;576;48.418;10.074;2023-03-22T03:42:02;23.40;56.80
1175;DHT22;576;48.418;10.074;2023-03-22T03:44:35;23.50;56.80
1175;DHT22;576;48.418;10.074;2023-03-22T03:47:04;23.40;56.80
1175;DHT22;576;48.418;10.074;2023-03-22T03:49:34;23.40;56.80
1175;DHT22;576;48.418;10.074;2023-03-22T03:52:04;23.40;56.80
1175;DHT22;576;48.418;10.074;2023-03-22T03:54:32;23.40;56.80
1175;DHT22;576;48.418;10.074;2023-03-22T03:57:04;23.40;56.80
1175;DHT22;576;48.418;10.074;2023-03-22T03:59:33;23.40;56.80
1175;DHT22;576;48.418;10.074;2023-03-22T04:02:08;23.40;56.80
1175;DHT22;576;48.418;10.074;2023-03-22T04:04:37;23.40;56.70
1175;DHT22;576;48.418;10.074;2023-03-22T04:07:05;23.40;56.70
1175;DHT22;576;48.418;10.074;2023-03-22T04:09:37;23.40;56.70
1175;DHT22;576;48.418;10.074;2023-03-22T04:12:17;23.40;56.70
1175;DHT22;576;48.418;10.074;2023-03-22T04:15:06;23.40;56.70
1175;DHT22;576;48.418;10.074;2023-03-22T04:17:35;23.40;56.70
1175;DHT22;576;48.418;10.074;2023-03-22T04:20:04;23.40;56.70
1175;DHT22;576;48.418;10.074;2023-03-22T04:22:35;23.40;56.70
1175;DHT22;576;48.418;10.074;2023-03-22T04:25:04;23.40;56.70
1175;DHT22;576;48.418;10.074;2023-03-22T04:27:42;23.40;56.70
1175;DHT22;576;48.418;10.074;2023-03-22T04:30:13;23.40;56.70
1175;DHT22;576;48.418;10.074;2023-03-22T04:32:59;23.40;56.70
1175;DHT22;576;48.418;10.074;2023-03-22T04:36:05;23.30;56.70
1175;DHT22;576;48.418;10.074;2023-03-22T04:38:48;23.30;56.80
1175;DHT22;576;48.418;10.074;2023-03-22T04:41:20;23.30;56.80
1175;DHT22;576;48.418;10.074;2023-03-22T04:43:52;23.30;56.80
1175;DHT22;576;48.418;10.074;2023-03-22T04:46:23;23.40;56.80
1175;DHT22;576;48.418;10.074;2023-03-22T04:48:59;23.40;56.80
1175;DHT22;576;48.418;10.074;2023-03-22T04:51:28;23.40;56.80
1175;DHT22;576;48.418;10.074;2023-03-22T04:54:10;23.40;56.70
1175;DHT22;576;48.418;10.074;2023-03-22T04:56:41;23.40;56.60
1175;DHT22;576;48.418;10.074;2023-03-22T04:59:10;23.50;56.60
1175;DHT22;576;48.418;10.074;2023-03-22T05:01:38;23.50;56.50
1175;DHT22;576;48.418;10.074;2023-03-22T05:04:14;23.50;56.50
1175;DHT22;576;48.418;10.074;2023-03-22T05:06:43;23.50;56.50
1175;DHT22;576;48.418;10.074;2023-03-22T05:09:19;23.50;56.40
1175;DHT22;576;48.418;10.074;2023-03-22T05:11:51;23.40;56.40
1175;DHT22;576;48.418;10.074;2023-03-22T05:14:26;23.40;56.40
1175;DHT22;576;48.418;10.074;2023-03-22T05:16:54;23.40;56.40
1175;DHT22;576;48.418;10.074;2023-03-22T05:19:23;23.40;56.40
1175;DHT22;576;48.418;10.074;2023-03-22T05:21:51;23.40;56.50
1175;DHT22;576;48.418;10.074;2023-03-22T05:24:37;23.40;56.40
1175;DHT22;576;48.418;10.074;2023-03-22T05:27:09;23.40;56.50
1175;DHT22;576;48.418;10.074;2023-03-22T05:29:42;23.40;56.50
1175;DHT22;576;48.418;10.074;2023-03-22T05:32:23;23.30;56.50
1175;DHT22;576;48.418;10.074;2023-03-22T05:34:55;23.30;56.50
1175;DHT22;576;48.418;10.074;2023-03-22T05:37:32;23.30;56.50
1175;DHT22;576;48.418;10.074;2023-03-22T05:40:00;23.30;56.50
1175;DHT22;576;48.418;10.074;2023-03-22T05:42:35;23.30;56.50
1175;DHT22;576;48.418;10.074;2023-03-22T05:45:15;23.30;56.50
1175;DHT22;576;48.418;10.074;2023-03-22T05:47:48;23.30;56.60
1175;DHT22;576;48.418;10.074;2023-03-22T05:50:21;23.30;56.60
1175;DHT22;576;48.418;10.074;2023-03-22T05:52:49;23.30;56.60
1175;DHT22;576;48.418;10.074;2023-03-22T05:55:37;23.30;56.50
1175;DHT22;576;48.418;10.074;2023-03-22T05:58:05;23.20;56.50
1175;DHT22;576;48.418;10.074;2023-03-22T06:00:38;23.30;56.40
1175;DHT22;576;48.418;10.074;2023-03-22T06:03:27;23.30;56.40
1175;DHT22;576;48.418;10.074;2023-03-22T06:06:08;23.20;56.50
1175;DHT22;576;48.418;10.074;2023-03-22T06:08:54;23.20;56.40
1175;DHT22;576;48.418;10.074;2023-03-22T06:11:41;23.30;56.30
1175;DHT22;576;48.418;10.074;2023-03-22T06:14:10;23.30;56.10
1175;DHT22;576;48.418;10.074;2023-03-22T06:17:11;23.30;56.00
1175;DHT22;576;48.418;10.074;2023-03-22T06:19:40;23.40;56.10
1175;DHT22;576;48.418;10.074;2023-03-22T06:22:10;23.40;56.10
1175;DHT22;576;48.418;10.074;2023-03-22T06:24:38;23.40;56.10
1175;DHT22;576;48.418;10.074;2023-03-22T06:27:08;23.40;56.10
1175;DHT22;576;48.418;10.074;2023-03-22T06:29:39;23.40;56.10
1175;DHT22;576;48.418;10.074;2023-03-22T06:32:07;23.40;56.10
1175;DHT22;576;48.418;10.074;2023-03-22T06:34:37;23.40;56.20
1175;DHT22;576;48.418;10.074;2023-03-22T06:37:06;23.40;56.20
1175;DHT22;576;48.418;10.074;2023-03-22T06:39:37;23.40;56.20
1175;DHT22;576;48.418;10.074;2023-03-22T06:42:05;23.40;56.20
1175;DHT22;576;48.418;10.074;2023-03-22T06:44:34;23.30;56.20
1175;DHT22;576;48.418;10.074;2023-03-22T06:47:12;23.30;56.20
1175;DHT22;576;48.418;10.074;2023-03-22T06:49:57;23.30;56.30
1175;DHT22;576;48.418;10.074;2023-03-22T06:52:38;23.30;56.30
1175;DHT22;576;48.418;10.074;2023-03-22T06:55:07;23.30;56.30
1175;DHT22;576;48.418;10.074;2023-03-22T06:57:36;23.30;56.30
1175;DHT22;576;48.418;10.074;2023-03-22T07:00:05;23.30;56.40
1175;DHT22;576;48.418;10.074;2023-03-22T07:02:34;23.30;56.40
1175;DHT22;576;48.418;10.074;2023-03-22T07:05:24;23.30;56.40
1175;DHT22;576;48.418;10.074;2023-03-22T07:07:53;23.30;56.50
1175;DHT22;576;48.418;10.074;2023-03-22T07:10:21;23.30;56.40
1175;DHT22;576;48.418;10.074;2023-03-22T07:12:49;23.30;56.30
1175;DHT22;576;48.418;10.074;2023-03-22T07:15:18;23.30;56.30
1175;DHT22;576;48.418;10.074;2023-03-22T07:18:01;23.30;56.40
1175;DHT22;576;48.418;10.074;2023-03-22T07:20:33;23.30;56.30
1175;DHT22;576;48.418;10.074;2023-03-22T07:23:03;23.30;56.50
1175;DHT22;576;48.418;10.074;2023-03-22T07:25:38;23.30;56.50
1175;DHT22;576;48.418;10.074;2023-03-22T07:28:26;23.30;56.40
1175;DHT22;576;48.418;10.074;2023-03-22T07:30:59;23.30;56.40
1175;DHT22;576;48.418;10.074;2023-03-22T07:33:31;23.30;56.40
1175;DHT22;576;48.418;10.074;2023-03-22T07:36:02;23.30;56.50
1175;DHT22;576;48.418;10.074;2023-03-22T07:38:30;23.30;56.60
1175;DHT22;576;48.418;10.074;2023-03-22T07:40:58;23.30;56.50
1175;DHT22;576;48.418;10.074;2023-03-22T07:43:40;23.30;56.50
1175;DHT22;576;48.418;10.074;2023-03-22T07:46:22;23.30;56.50
1175;DHT22;576;48.418;10.074;2023-03-22T07:49:15;23.30;56.50
1175;DHT22;576;48.418;10.074;2023-03-22T07:52:04;23.30;56.40
1175;DHT22;576;48.418;10.074;2023-03-22T07:54:32;23.30;56.60
1175;DHT22;576;48.418;10.074;2023-03-22T07:57:03;23.30;56.60
1175;DHT22;576;48.418;10.074;2023-03-22T07:59:36;23.30;56.60
1175;DHT22;576;48.418;10.074;2023-03-22T08:02:08;23.30;56.80
1175;DHT22;576;48.418;10.074;2023-03-22T08:04:43;23.30;56.70
1175;DHT22;576;48.418;10.074;2023-03-22T08:07:31;23.30;56.90
1175;DHT22;576;48.418;10.074;2023-03-22T08:10:00;23.40;57.10
1175;DHT22;576;48.418;10.074;2023-03-22T08:12:29;23.40;57.00
1175;DHT22;576;48.418;10.074;2023-03-22T08:15:07;23.40;57.10
1175;DHT22;576;48.418;10.074;2023-03-22T08:17:36;23.50;57.10
1175;DHT22;576;48.418;10.074;2023-03-22T08:20:08;23.50;57.00
1175;DHT22;576;48.418;10.074;2023-03-22T08:22:46;23.50;57.00
1175;DHT22;576;48.418;10.074;2023-03-22T08:25:17;23.50;57.10
1175;DHT22;576;48.418;10.074;2023-03-22T08:27:46;23.50;57.00
1175;DHT22;576;48.418;10.074;2023-03-22T08:30:14;23.60;57.00
1175;DHT22;576;48.418;10.074;2023-03-22T08:32:43;23.60;57.00
1175;DHT22;576;48.418;10.074;2023-03-22T08:35:11;23.60;57.00
1175;DHT22;576;48.418;10.074;2023-03-22T08:37:40;23.60;57.00
1175;DHT22;576;48.418;10.074;2023-03-22T08:40:11;23.60;57.00
1175;DHT22;576;48.418;10.074;2023-03-22T08:42:44;23.60;57.00
1175;DHT22;576;48.418;10.074;2023-03-22T08:45:12;23.60;57.00
1175;DHT22;576;48.418;10.074;2023-03-22T08:47:50;23.70;57.00
1175;DHT22;576;48.418;10.074;2023-03-22T08:50:21;23.70;57.10
1175;DHT22;576;48.418;10.074;2023-03-22T08:53:06;23.70;57.10
1175;DHT22;576;48.418;10.074;2023-03-22T08:55:36;23.70;57.10
1175;DHT22;576;48.418;10.074;2023-03-22T08:58:08;23.70;57.20
1175;DHT22;576;48.418;10.074;2023-03-22T09:00:59;23.70;57.20
1175;DHT22;576;48.418;10.074;2023-03-22T09:03:46;23.70;57.10
1175;DHT22;576;48.418;10.074;2023-03-22T09:06:15;23.70;57.10
1175;DHT22;576;48.418;10.074;2023-03-22T09:08:43;23.70;57.10
1175;DHT22;576;48.418;10.074;2023-03-22T09:11:15;23.70;57.10
1175;DHT22;576;48.418;10.074;2023-03-22T09:13:45;23.70;57.10
1175;DHT22;576;48.418;10.074;2023-03-22T09:16:14;23.70;57.10
1175;DHT22;576;48.418;10.074;2023-03-22T09:18:44;23.70;57.10
1175;DHT22;576;48.418;10.074;2023-03-22T09:21:16;23.70;57.10
1175;DHT22;576;48.418;10.074;2023-03-22T09:23:51;23.70;57.10
1175;DHT22;576;48.418;10.074;2023-03-22T09:26:25;23.70;57.00
1175;DHT22;576;48.418;10.074;2023-03-22T09:28:54;23.70;57.10
1175;DHT22;576;48.418;10.074;2023-03-22T09:31:22;23.70;57.00
1175;DHT22;576;48.418;10.074;2023-03-22T09:34:02;23.80;57.10
1175;DHT22;576;48.418;10.074;2023-03-22T09:36:31;23.70;57.00
1175;DHT22;576;48.418;10.074;2023-03-22T09:39:00;23.80;57.00
1175;DHT22;576;48.418;10.074;2023-03-22T09:41:37;23.80;56.70
1175;DHT22;576;48.418;10.074;2023-03-22T09:44:10;23.80;56.60
1175;DHT22;576;48.418;10.074;2023-03-22T09:46:42;23.80;56.60
1175;DHT22;576;48.418;10.074;2023-03-22T09:49:14;23.80;56.60
1175;DHT22;576;48.418;10.074;2023-03-22T09:51:45;23.80;56.90
1175;DHT22;576;48.418;10.074;2023-03-22T09:54:15;23.80;56.90
1175;DHT22;576;48.418;10.074;2023-03-22T09:56:49;23.80;56.90
1175;DHT22;576;48.418;10.074;2023-03-22T09:59:24;23.80;56.90
1175;DHT22;576;48.418;10.074;2023-03-22T10:01:57;23.80;56.90
1175;DHT22;576;48.418;10.074;2023-03-22T10:04:39;23.90;56.80
1175;DHT22;576;48.418;10.074;2023-03-22T10:07:17;23.90;56.70
1175;DHT22;576;48.418;10.074;2023-03-22T10:09:58;23.90;56.70
1175;DHT22;576;48.418;10.074;2023-03-22T10:12:34;23.90;56.70
1175;DHT22;576;48.418;10.074;2023-03-22T10:15:08;23.90;56.70
1175;DHT22;576;48.418;10.074;2023-03-22T10:17:38;24.00;56.70
1175;DHT22;576;48.418;10.074;2023-03-22T10:20:17;23.90;56.80
1175;DHT22;576;48.418;10.074;2023-03-22T10:22:47;24.00;56.70
1175;DHT22;576;48.418;10.074;2023-03-22T10:25:23;24.00;56.70
1175;DHT22;576;48.418;10.074;2023-03-22T10:27:56;24.00;56.70
1175;DHT22;576;48.418;10.074;2023-03-22T10:30:26;24.00;56.70
1175;DHT22;576;48.418;10.074;2023-03-22T10:32:59;24.00;56.70
1175;DHT22;576;48.418;10.074;2023-03-22T10:35:28;24.00;56.80
1175;DHT22;576;48.418;10.074;2023-03-22T10:37:59;24.00;56.60
1175;DHT22;576;48.418;10.074;2023-03-22T10:40:29;24.10;56.50
1175;DHT22;576;48.418;10.074;2023-03-22T10:43:03;24.10;56.50
1175;DHT22;576;48.418;10.074;2023-03-22T10:45:34;24.10;56.40
1175;DHT22;576;48.418;10.074;2023-03-22T10:48:06;24.10;56.30
1175;DHT22;576;48.418;10.074;2023-03-22T10:50:38;24.10;56.20
1175;DHT22;576;48.418;10.074;2023-03-22T10:53:14;24.20;56.10
1175;DHT22;576;48.418;10.074;2023-03-22T10:55:44;24.20;56.20
1175;DHT22;576;48.418;10.074;2023-03-22T10:58:15;24.30;55.80
1175;DHT22;576;48.418;10.074;2023-03-22T11:00:45;24.40;55.50
1175;DHT22;576;48.418;10.074;2023-03-22T11:03:30;24.60;55.30
1175;DHT22;576;48.418;10.074;2023-03-22T11:06:05;24.80;54.80
1175;DHT22;576;48.418;10.074;2023-03-22T11:08:42;25.10;54.40
1175;DHT22;576;48.418;10.074;2023-03-22T11:11:20;25.30;53.90
1175;DHT22;576;48.418;10.074;2023-03-22T11:14:04;25.50;53.50
1175;DHT22;576;48.418;10.074;2023-03-22T11:16:41;25.60;53.20
1175;DHT22;576;48.418;10.074;2023-03-22T11:19:22;25.70;52.90
1175;DHT22;576;48.418;10.074;2023-03-22T11:21:53;25.80;52.70
1175;DHT22;576;48.418;10.074;2023-03-22T11:24:23;26.00;52.50
1175;DHT22;576;48.418;10.074;2023-03-22T11:27:04;26.10;52.20
1175;DHT22;576;48.418;10.074;2023-03-22T11:29:42;26.20;51.80
1175;DHT22;576;48.418;10.074;2023-03-22T11:32:21;26.30;51.70
1175;DHT22;576;48.418;10.074;2023-03-22T11:35:04;26.40;51.60
1175;DHT22;576;48.418;10.074;2023-03-22T11:37:40;26.40;51.40
1175;DHT22;576;48.418;10.074;2023-03-22T11:40:14;26.50;51.30
1175;DHT22;576;48.418;10.074;2023-03-22T11:42:43;26.60;51.20
1175;DHT22;576;48.418;10.074;2023-03-22T11:45:16;26.60;51.20
1175;DHT22;576;48.418;10.074;2023-03-22T11:47:45;26.60;51.10
1175;DHT22;576;48.418;10.074;2023-03-22T11:50:25;26.60;51.10
1175;DHT22;576;48.418;10.074;2023-03-22T11:52:53;26.60;51.10
1175;DHT22;576;48.418;10.074;2023-03-22T11:55:23;26.60;51.10
1175;DHT22;576;48.418;10.074;2023-03-22T11:57:54;26.50;51.20
1175;DHT22;576;48.418;10.074;2023-03-22T12:00:25;26.50;51.30
1175;DHT22;576;48.418;10.074;2023-03-22T12:02:56;26.40;51.40
1175;DHT22;576;48.418;10.074;2023-03-22T12:05:27;26.30;51.50
1175;DHT22;576;48.418;10.074;2023-03-22T12:07:59;26.10;52.00
1175;DHT22;576;48.418;10.074;2023-03-22T12:10:30;26.10;52.10
1175;DHT22;576;48.418;10.074;2023-03-22T12:13:03;26.00;52.30
1175;DHT22;576;48.418;10.074;2023-03-22T12:15:38;26.00;52.40
1175;DHT22;576;48.418;10.074;2023-03-22T12:18:12;26.10;52.40
1175;DHT22;576;48.418;10.074;2023-03-22T12:20:46;26.20;52.20
1175;DHT22;576;48.418;10.074;2023-03-22T12:23:18;26.30;52.10
1175;DHT22;576;48.418;10.074;2023-03-22T12:25:49;26.40;51.90
1175;DHT22;576;48.418;10.074;2023-03-22T12:28:21;26.50;51.70
1175;DHT22;576;48.418;10.074;2023-03-22T12:30:54;26.50;51.60
1175;DHT22;576;48.418;10.074;2023-03-22T12:33:26;26.60;51.50
1175;DHT22;576;48.418;10.074;2023-03-22T12:35:59;26.60;51.40
1175;DHT22;576;48.418;10.074;2023-03-22T12:38:33;26.50;51.40
1175;DHT22;576;48.418;10.074;2023-03-22T12:41:07;26.40;51.50
1175;DHT22;576;48.418;10.074;2023-03-22T12:43:45;26.40;51.70
1175;DHT22;576;48.418;10.074;2023-03-22T12:46:20;26.30;51.70
1175;DHT22;576;48.418;10.074;2023-03-22T12:48:52;26.20;51.90
1175;DHT22;576;48.418;10.074;2023-03-22T12:51:20;26.10;52.10
1175;DHT22;576;48.418;10.074;2023-03-22T12:53:50;25.90;52.30
1175;DHT22;576;48.418;10.074;2023-03-22T12:56:22;25.90;52.50
1175;DHT22;576;48.418;10.074;2023-03-22T12:58:53;25.80;52.60
1175;DHT22;576;48.418;10.074;2023-03-22T13:01:32;25.80;52.70
1175;DHT22;576;48.418;10.074;2023-03-22T13:04:45;25.80;52.60
1175;DHT22;576;48.418;10.074;2023-03-22T13:07:15;25.80;52.60
1175;DHT22;576;48.418;10.074;2023-03-22T13:09:45;25.80;52.70
1175;DHT22;576;48.418;10.074;2023-03-22T13:12:35;25.70;52.70
1175;DHT22;576;48.418;10.074;2023-03-22T13:15:27;25.70;52.90
1175;DHT22;576;48.418;10.074;2023-03-22T13:21:13;25.70;52.90
1175;DHT22;576;48.418;10.074;2023-03-22T13:23:56;25.70;53.00
1175;DHT22;576;48.418;10.074;2023-03-22T13:26:33;25.70;53.10
1175;DHT22;576;48.418;10.074;2023-03-22T13:29:09;25.70;53.20
1175;DHT22;576;48.418;10.074;2023-03-22T13:31:42;25.70;53.20
1175;DHT22;576;48.418;10.074;2023-03-22T13:34:17;25.70;53.20
1175;DHT22;576;48.418;10.074;2023-03-22T13:36:52;25.80;53.20
1175;DHT22;576;48.418;10.074;2023-03-22T13:39:22;25.80;53.10
1175;DHT22;576;48.418;10.074;2023-03-22T13:42:05;25.80;53.10
1175;DHT22;576;48.418;10.074;2023-03-22T13:44:38;25.90;53.40
1175;DHT22;576;48.418;10.074;2023-03-22T13:47:29;26.00;53.40
1175;DHT22;576;48.418;10.074;2023-03-22T13:50:10;26.10;53.50
1175;DHT22;576;48.418;10.074;2023-03-22T13:52:44;26.10;53.50
1175;DHT22;576;48.418;10.074;2023-03-22T13:57:58;26.20;53.30
1175;DHT22;576;48.418;10.074;2023-03-22T14:00:39;26.20;53.40
1175;DHT22;576;48.418;10.074;2023-03-22T14:03:19;26.20;53.50
1175;DHT22;576;48.418;10.074;2023-03-22T14:06:02;26.20;53.60
1175;DHT22;576;48.418;10.074;2023-03-22T14:08:33;26.10;53.80
1175;DHT22;576;48.418;10.074;2023-03-22T14:11:14;26.10;54.00
1175;DHT22;576;48.418;10.074;2023-03-22T14:13:48;26.10;54.10
1175;DHT22;576;48.418;10.074;2023-03-22T14:16:20;26.00;54.20
1175;DHT22;576;48.418;10.074;2023-03-22T14:18:54;26.00;54.20
1175;DHT22;576;48.418;10.074;2023-03-22T14:21:28;26.00;54.20
1175;DHT22;576;48.418;10.074;2023-03-22T14:24:00;26.00;54.40
1175;DHT22;576;48.418;10.074;2023-03-22T14:26:31;26.00;54.50
1175;DHT22;576;48.418;10.074;2023-03-22T14:29:09;25.90;54.50
1175;DHT22;576;48.418;10.074;2023-03-22T14:31:36;25.90;53.70
1175;DHT22;576;48.418;10.074;2023-03-22T14:34:05;25.80;53.80
1175;DHT22;576;48.418;10.074;2023-03-22T14:36:35;25.80;54.00
1175;DHT22;576;48.418;10.074;2023-03-22T14:39:10;25.80;54.30
1175;DHT22;576;48.418;10.074;2023-03-22T14:41:56;25.90;54.40
1175;DHT22;576;48.418;10.074;2023-03-22T14:44:24;25.90;53.90
1175;DHT22;576;48.418;10.074;2023-03-22T14:46:59;25.90;53.80
1175;DHT22;576;48.418;10.074;2023-03-22T14:49:27;25.90;53.80
1175;DHT22;576;48.418;10.074;2023-03-22T14:51:55;25.90;53.80
1175;DHT22;576;48.418;10.074;2023-03-22T14:54:27;25.90;54.00
1175;DHT22;576;48.418;10.074;2023-03-22T14:56:58;26.00;54.10
1175;DHT22;576;48.418;10.074;2023-03-22T14:59:26;26.00;53.90
1175;DHT22;576;48.418;10.074;2023-03-22T15:01:57;26.00;54.00
1175;DHT22;576;48.418;10.074;2023-03-22T15:04:27;26.00;54.20
1175;DHT22;576;48.418;10.074;2023-03-22T15:06:56;26.00;54.10
1175;DHT22;576;48.418;10.074;2023-03-22T15:09:25;25.90;54.20
1175;DHT22;576;48.418;10.074;2023-03-22T15:11:55;25.90;54.10
1175;DHT22;576;48.418;10.074;2023-03-22T15:14:26;25.90;54.20
1175;DHT22;576;48.418;10.074;2023-03-22T15:16:54;25.80;54.50
1175;DHT22;576;48.418;10.074;2023-03-22T15:19:22;25.80;54.50
1175;DHT22;576;48.418;10.074;2023-03-22T15:22:02;25.70;54.30
1175;DHT22;576;48.418;10.074;2023-03-22T15:24:34;25.70;54.50
1175;DHT22;576;48.418;10.074;2023-03-22T15:27:02;25.70;54.60
1175;DHT22;576;48.418;10.074;2023-03-22T15:29:30;25.70;54.80
1175;DHT22;576;48.418;10.074;2023-03-22T15:32:01;25.70;54.70
1175;DHT22;576;48.418;10.074;2023-03-22T15:34:31;25.70;54.70
1175;DHT22;576;48.418;10.074;2023-03-22T15:37:00;25.70;55.00
1175;DHT22;576;48.418;10.074;2023-03-22T15:39:36;25.80;54.70
1175;DHT22;576;48.418;10.074;2023-03-22T15:42:14;25.80;54.90
1175;DHT22;576;48.418;10.074;2023-03-22T15:44:50;25.80;54.90
1175;DHT22;576;48.418;10.074;2023-03-22T15:47:18;25.80;55.10
1175;DHT22;576;48.418;10.074;2023-03-22T15:49:48;25.80;55.50
1175;DHT22;576;48.418;10.074;2023-03-22T15:52:18;25.90;55.90
1175;DHT22;576;48.418;10.074;2023-03-22T15:54:55;25.90;56.00
1175;DHT22;576;48.418;10.074;2023-03-22T15:57:35;26.00;55.70
1175;DHT22;576;48.418;10.074;2023-03-22T16:00:07;26.00;55.80
1175;DHT22;576;48.418;10.074;2023-03-22T16:02:51;26.00;54.90
1175;DHT22;576;48.418;10.074;2023-03-22T16:05:18;25.90;54.20
1175;DHT22;576;48.418;10.074;2023-03-22T16:07:46;25.70;51.40
1175;DHT22;576;48.418;10.074;2023-03-22T16:10:16;25.50;47.40
1175;DHT22;576;48.418;10.074;2023-03-22T16:12:45;25.20;49.00
1175;DHT22;576;48.418;10.074;2023-03-22T16:15:14;24.80;49.60
1175;DHT22;576;48.418;10.074;2023-03-22T16:17:42;24.60;48.80
1175;DHT22;576;48.418;10.074;2023-03-22T16:20:14;24.40;50.60
1175;DHT22;576;48.418;10.074;2023-03-22T16:22:43;24.30;49.70
1175;DHT22;576;48.418;10.074;2023-03-22T16:25:16;24.30;49.60
1175;DHT22;576;48.418;10.074;2023-03-22T16:27:43;24.20;46.70
1175;DHT22;576;48.418;10.074;2023-03-22T16:30:11;23.90;47.70
1175;DHT22;576;48.418;10.074;2023-03-22T16:32:39;23.70;48.30
1175;DHT22;576;48.418;10.074;2023-03-22T16:35:13;23.50;48.00
1175;DHT22;576;48.418;10.074;2023-03-22T16:37:40;23.40;49.10
1175;DHT22;576;48.418;10.074;2023-03-22T16:40:15;23.30;47.70
1175;DHT22;576;48.418;10.074;2023-03-22T16:42:43;22.90;47.80
1175;DHT22;576;48.418;10.074;2023-03-22T16:45:12;22.40;48.50
1175;DHT22;576;48.418;10.074;2023-03-22T16:47:40;22.20;48.30
1175;DHT22;576;48.418;10.074;2023-03-22T16:50:09;22.00;49.50
1175;DHT22;576;48.418;10.074;2023-03-22T16:52:36;21.90;49.40
1175;DHT22;576;48.418;10.074;2023-03-22T16:55:04;21.80;49.80
1175;DHT22;576;48.418;10.074;2023-03-22T16:57:38;21.80;50.80